createdAt,value
2019-01-25T00:00:56.155Z,-5.30
2019-01-25T00:03:30.455Z,-5.30
2019-01-25T00:06:05.154Z,-5.10
2019-01-25T00:08:39.566Z,-5.00
2019-01-25T00:11:13.859Z,-4.90
2019-01-25T00:13:48.176Z,-4.80
2019-01-25T00:16:22.476Z,-4.80
2019-01-25T00:18:56.806Z,-4.90
2019-01-25T00:21:31.105Z,-5.00
2019-01-25T00:24:05.800Z,-5.10
2019-01-25T00:26:40.100Z,-5.20
2019-01-25T00:29:14.430Z,-5.10
2019-01-25T00:31:48.729Z,-5.20
2019-01-25T00:34:23.134Z,-5.30
2019-01-25T00:36:57.436Z,-5.40
2019-01-25T00:39:31.756Z,-5.60
2019-01-25T00:42:06.180Z,-5.90
2019-01-25T00:44:40.477Z,-5.90
2019-01-25T00:47:14.806Z,-5.80
2019-01-25T00:49:49.112Z,-5.80
2019-01-25T00:52:23.913Z,-5.80
2019-01-25T00:54:58.234Z,-5.80
2019-01-25T00:57:32.530Z,-5.80
2019-01-25T01:00:14.647Z,-5.80
2019-01-25T01:02:48.946Z,-5.60
2019-01-25T01:05:23.280Z,-5.60
2019-01-25T01:07:57.573Z,-5.80
2019-01-25T01:10:31.901Z,-5.90
2019-01-25T01:13:06.197Z,-5.90
2019-01-25T01:15:40.535Z,-5.70
2019-01-25T01:18:14.834Z,-5.70
2019-01-25T01:20:49.160Z,-5.60
2019-01-25T01:23:23.477Z,-5.70
2019-01-25T01:25:57.800Z,-5.90
2019-01-25T01:28:32.122Z,-6.20
2019-01-25T01:31:06.446Z,-6.20
2019-01-25T01:33:40.774Z,-6.20
2019-01-25T01:36:15.064Z,-5.90
2019-01-25T01:38:49.406Z,-5.80
2019-01-25T01:41:23.703Z,-6.10
2019-01-25T01:43:58.023Z,-6.40
2019-01-25T01:46:32.354Z,-6.70
2019-01-25T01:49:06.675Z,-6.80
2019-01-25T01:51:40.973Z,-6.50
2019-01-25T01:54:15.294Z,-6.60
2019-01-25T01:56:49.629Z,-6.80
2019-01-25T01:59:23.943Z,-6.80
2019-01-25T02:01:58.319Z,-6.80
2019-01-25T02:04:32.618Z,-6.70
2019-01-25T02:07:06.939Z,-6.80
2019-01-25T02:09:41.265Z,-7.10
2019-01-25T02:12:15.632Z,-7.10
2019-01-25T02:14:49.954Z,-7.10
2019-01-25T02:17:24.253Z,-7.10
2019-01-25T02:19:58.581Z,-6.90
2019-01-25T02:22:32.881Z,-6.50
2019-01-25T02:25:07.884Z,-6.30
2019-01-25T02:27:42.189Z,-6.30
2019-01-25T02:30:22.473Z,-6.30
2019-01-25T02:32:56.805Z,-6.20
2019-01-25T02:35:31.129Z,-6.10
2019-01-25T02:38:05.423Z,-6.00
2019-01-25T02:40:39.758Z,-6.10
2019-01-25T02:43:14.059Z,-6.30
2019-01-25T02:45:48.390Z,-6.40
2019-01-25T02:48:22.690Z,-6.30
2019-01-25T02:50:57.005Z,-6.20
2019-01-25T02:53:31.336Z,-6.40
2019-01-25T02:56:05.733Z,-6.40
2019-01-25T02:58:40.032Z,-6.40
2019-01-25T03:01:14.352Z,-6.20
2019-01-25T03:03:48.651Z,-6.20
2019-01-25T03:06:22.987Z,-6.30
2019-01-25T03:08:57.307Z,-6.30
2019-01-25T03:11:31.632Z,-6.30
2019-01-25T03:14:05.999Z,-6.40
2019-01-25T03:16:40.335Z,-6.50
2019-01-25T03:19:14.655Z,-6.80
2019-01-25T03:21:48.953Z,-7.10
2019-01-25T03:24:23.276Z,-7.10
2019-01-25T03:27:00.048Z,-7.10
2019-01-25T03:29:33.624Z,-7.10
2019-01-25T03:32:07.925Z,-6.90
2019-01-25T03:34:42.247Z,-6.70
2019-01-25T03:37:16.570Z,-6.80
2019-01-25T03:39:50.894Z,-6.90
2019-01-25T03:42:25.192Z,-6.90
2019-01-25T03:44:59.508Z,-6.90
2019-01-25T03:47:33.856Z,-6.90
2019-01-25T03:50:18.760Z,-7.00
2019-01-25T03:52:53.772Z,-7.00
2019-01-25T03:55:28.332Z,-6.90
2019-01-25T03:58:02.663Z,-7.10
2019-01-25T04:00:36.991Z,-7.10
2019-01-25T04:03:11.291Z,-7.40
2019-01-25T04:05:45.619Z,-7.50
2019-01-25T04:08:19.912Z,-7.50
2019-01-25T04:10:54.239Z,-7.40
2019-01-25T04:13:28.567Z,-7.40
2019-01-25T04:16:02.866Z,-7.40
2019-01-25T04:18:37.187Z,-7.30
2019-01-25T04:21:11.504Z,-7.20
2019-01-25T04:23:45.823Z,-7.30
2019-01-25T04:26:20.156Z,-7.50
2019-01-25T04:28:56.099Z,-7.50
2019-01-25T04:31:30.439Z,-7.60
2019-01-25T04:34:04.723Z,-7.60
2019-01-25T04:36:39.047Z,-7.40
2019-01-25T04:39:13.362Z,-7.50
2019-01-25T04:41:47.665Z,-7.40
2019-01-25T04:44:21.983Z,-7.30
2019-01-25T04:46:56.285Z,-7.20
2019-01-25T04:49:31.707Z,-7.20
2019-01-25T04:52:12.467Z,-7.00
2019-01-25T04:54:46.804Z,-6.70
2019-01-25T04:57:21.211Z,-6.60
2019-01-25T04:59:55.569Z,-6.70
2019-01-25T05:02:29.877Z,-7.00
2019-01-25T05:05:05.433Z,-7.10
2019-01-25T05:07:39.735Z,-7.10
2019-01-25T05:10:14.069Z,-7.30
2019-01-25T05:12:53.344Z,-7.30
2019-01-25T05:15:27.635Z,-7.10
2019-01-25T05:18:01.963Z,-7.20
2019-01-25T05:20:36.262Z,-7.50
2019-01-25T05:23:10.656Z,-7.60
2019-01-25T05:25:44.953Z,-7.70
2019-01-25T05:28:19.366Z,-7.70
2019-01-25T05:30:59.472Z,-7.70
2019-01-25T05:33:33.788Z,-7.80
2019-01-25T05:36:08.085Z,-7.80
2019-01-25T05:38:46.059Z,-7.70
2019-01-25T05:41:27.881Z,-7.60
2019-01-25T05:43:56.448Z,-7.60
2019-01-25T05:46:30.741Z,-7.50
2019-01-25T05:49:05.072Z,-7.60
2019-01-25T05:51:39.396Z,-7.70
2019-01-25T05:54:13.695Z,-7.60
2019-01-25T05:56:48.022Z,-7.40
2019-01-25T05:59:24.379Z,-7.60
2019-01-25T06:01:58.705Z,-7.60
2019-01-25T06:04:38.613Z,-7.30
2019-01-25T06:07:12.911Z,-7.20
2019-01-25T06:09:47.244Z,-7.00
2019-01-25T06:12:21.534Z,-7.10
2019-01-25T06:14:55.861Z,-7.10
2019-01-25T06:17:30.155Z,-7.10
2019-01-25T06:20:07.612Z,-7.20
2019-01-25T06:22:41.944Z,-7.30
2019-01-25T06:25:16.268Z,-7.20
2019-01-25T06:27:50.565Z,-7.10
2019-01-25T06:30:24.894Z,-7.20
2019-01-25T06:32:59.194Z,-7.20
2019-01-25T06:35:33.526Z,-7.30
2019-01-25T06:38:07.925Z,-7.30
2019-01-25T06:40:42.222Z,-7.30
2019-01-25T06:43:16.549Z,-7.30
2019-01-25T06:45:50.878Z,-7.40
2019-01-25T06:48:25.176Z,-7.40
2019-01-25T06:50:59.497Z,-7.40
2019-01-25T06:53:33.793Z,-7.50
2019-01-25T06:56:08.128Z,-7.40
2019-01-25T06:58:44.096Z,-7.20
2019-01-25T07:01:23.004Z,-7.20
2019-01-25T07:03:57.306Z,-7.10
2019-01-25T07:06:31.647Z,-7.00
2019-01-25T07:09:09.082Z,-7.10
2019-01-25T07:11:43.413Z,-7.00
2019-01-25T07:14:17.742Z,-6.90
2019-01-25T07:16:52.043Z,-6.90
2019-01-25T07:19:26.367Z,-6.80
2019-01-25T07:22:00.703Z,-6.90
2019-01-25T07:24:34.999Z,-6.80
2019-01-25T07:27:09.342Z,-6.60
2019-01-25T07:29:43.652Z,-6.60
2019-01-25T07:32:18.321Z,-6.50
2019-01-25T07:34:52.651Z,-6.30
2019-01-25T07:37:27.041Z,-6.20
2019-01-25T07:40:01.390Z,-6.20
2019-01-25T07:42:35.663Z,-6.10
2019-01-25T07:45:13.282Z,-6.00
2019-01-25T07:47:47.582Z,-5.90
2019-01-25T07:50:23.191Z,-5.70
2019-01-25T07:52:57.502Z,-5.50
2019-01-25T07:55:31.812Z,-5.30
2019-01-25T07:58:06.175Z,-5.20
2019-01-25T08:00:40.546Z,-5.00
2019-01-25T08:03:15.026Z,-4.90
2019-01-25T08:05:49.354Z,-4.80
2019-01-25T08:08:23.694Z,-4.80
2019-01-25T08:10:58.058Z,-4.70
2019-01-25T08:13:33.285Z,-4.60
2019-01-25T08:16:07.571Z,-4.40
2019-01-25T08:18:41.903Z,-4.20
2019-01-25T08:21:16.277Z,-4.10
2019-01-25T08:23:50.650Z,-4.00
2019-01-25T08:26:24.957Z,-3.80
2019-01-25T08:28:59.277Z,-3.80
2019-01-25T08:31:33.609Z,-3.60
2019-01-25T08:34:07.897Z,-3.60
2019-01-25T08:36:42.225Z,-3.40
2019-01-25T08:39:16.521Z,-3.30
2019-01-25T08:41:50.863Z,-3.20
2019-01-25T08:44:25.248Z,-3.10
2019-01-25T08:46:59.557Z,-3.10
2019-01-25T08:49:33.973Z,-3.20
2019-01-25T08:52:08.426Z,-3.20
2019-01-25T08:54:44.326Z,-2.90
2019-01-25T08:57:18.667Z,-3.10
2019-01-25T08:59:53.051Z,-2.90
2019-01-25T09:02:27.348Z,-2.80
2019-01-25T09:05:01.683Z,-2.50
2019-01-25T09:07:36.008Z,-2.40
2019-01-25T09:10:17.676Z,-2.30
2019-01-25T09:12:52.005Z,-2.20
2019-01-25T09:15:32.606Z,-2.10
2019-01-25T09:18:06.944Z,-2.10
2019-01-25T09:20:41.242Z,-1.90
2019-01-25T09:23:15.583Z,-1.70
2019-01-25T09:25:49.873Z,-1.60
2019-01-25T09:28:24.203Z,-1.60
2019-01-25T09:30:58.529Z,-1.60
2019-01-25T09:33:32.827Z,-1.30
2019-01-25T09:36:07.216Z,-1.40
2019-01-25T09:38:41.562Z,-1.30
2019-01-25T09:41:15.885Z,-1.10
2019-01-25T09:43:50.190Z,-0.80
2019-01-25T09:46:24.803Z,-0.50
2019-01-25T09:48:59.267Z,-0.40
2019-01-25T09:51:33.824Z,-0.40
2019-01-25T09:54:08.188Z,-0.30
2019-01-25T09:56:42.517Z,-0.20
2019-01-25T09:59:16.925Z,0.00
2019-01-25T10:01:51.211Z,0.30
2019-01-25T10:04:25.536Z,0.50
2019-01-25T10:06:59.823Z,0.60
2019-01-25T10:09:34.142Z,0.70
2019-01-25T10:12:08.497Z,0.80
2019-01-25T10:14:42.823Z,0.90
2019-01-25T10:17:17.148Z,1.10
2019-01-25T10:19:52.465Z,1.20
2019-01-25T10:22:26.757Z,1.30
2019-01-25T10:25:01.157Z,1.30
2019-01-25T10:27:35.451Z,1.20
2019-01-25T10:30:17.209Z,1.30
2019-01-25T10:32:51.551Z,1.40
2019-01-25T10:35:25.880Z,1.50
2019-01-25T10:38:00.329Z,1.60
2019-01-25T10:40:34.619Z,1.70
2019-01-25T10:43:09.154Z,1.80
2019-01-25T10:45:44.443Z,1.90
2019-01-25T10:48:19.006Z,2.10
2019-01-25T10:50:53.363Z,2.20
2019-01-25T10:53:27.810Z,2.20
2019-01-25T10:56:02.722Z,2.10
2019-01-25T10:58:37.262Z,2.10
2019-01-25T11:01:11.614Z,2.20
2019-01-25T11:03:46.728Z,2.40
2019-01-25T11:06:21.233Z,2.40
2019-01-25T11:08:55.512Z,2.40
2019-01-25T11:11:29.839Z,2.40
2019-01-25T11:14:04.379Z,2.50
2019-01-25T11:16:38.822Z,2.70
2019-01-25T11:19:13.115Z,2.70
2019-01-25T11:21:47.483Z,2.60
2019-01-25T11:24:21.796Z,2.50
2019-01-25T11:27:00.293Z,2.40
2019-01-25T11:29:32.270Z,2.30
2019-01-25T11:32:06.572Z,2.30
2019-01-25T11:34:40.952Z,2.40
2019-01-25T11:37:15.284Z,2.50
2019-01-25T11:39:49.585Z,2.50
2019-01-25T11:42:23.909Z,2.50
2019-01-25T11:44:58.203Z,2.50
2019-01-25T11:47:32.531Z,2.40
2019-01-25T11:50:11.787Z,2.40
2019-01-25T11:52:46.080Z,2.40
2019-01-25T11:55:20.569Z,2.70
2019-01-25T11:57:54.857Z,2.70
2019-01-25T12:00:32.721Z,2.70
2019-01-25T12:03:07.017Z,2.90
2019-01-25T12:05:41.340Z,2.90
2019-01-25T12:08:15.726Z,2.90
2019-01-25T12:10:50.015Z,2.90
2019-01-25T12:13:24.409Z,2.80
2019-01-25T12:15:58.730Z,3.00
2019-01-25T12:18:33.088Z,3.00
2019-01-25T12:21:07.406Z,2.90
2019-01-25T12:23:41.697Z,2.80
2019-01-25T12:26:16.031Z,2.80
2019-01-25T12:28:50.322Z,2.70
2019-01-25T12:31:24.647Z,2.70
2019-01-25T12:33:58.940Z,2.50
2019-01-25T12:36:33.264Z,2.40
2019-01-25T12:39:08.600Z,2.50
2019-01-25T12:41:42.912Z,2.50
2019-01-25T12:44:17.248Z,2.60
2019-01-25T12:46:51.567Z,2.60
2019-01-25T12:49:25.893Z,2.70
2019-01-25T12:52:00.216Z,2.90
2019-01-25T12:54:34.525Z,2.90
2019-01-25T12:57:08.858Z,3.00
2019-01-25T12:59:43.145Z,3.00
2019-01-25T13:02:17.511Z,2.80
2019-01-25T13:04:51.868Z,2.90
2019-01-25T13:07:26.186Z,3.00
2019-01-25T13:10:00.505Z,3.00
2019-01-25T13:12:34.801Z,3.00
2019-01-25T13:15:11.836Z,3.00
2019-01-25T13:17:46.137Z,3.00
2019-01-25T13:20:23.659Z,2.90
2019-01-25T13:22:59.570Z,3.00
2019-01-25T13:25:33.783Z,3.00
2019-01-25T13:28:08.142Z,3.10
2019-01-25T13:30:42.433Z,3.20
2019-01-25T13:33:16.756Z,3.10
2019-01-25T13:35:51.051Z,3.10
2019-01-25T13:38:25.445Z,2.90
2019-01-25T13:40:59.736Z,2.80
2019-01-25T13:43:38.990Z,2.90
2019-01-25T13:46:10.083Z,2.80
2019-01-25T13:48:44.399Z,2.80
2019-01-25T13:51:18.715Z,2.80
2019-01-25T13:53:53.039Z,2.90
2019-01-25T13:56:27.351Z,2.90
2019-01-25T13:59:01.644Z,3.00
2019-01-25T14:01:35.954Z,3.00
2019-01-25T14:04:10.266Z,3.00
2019-01-25T14:06:44.592Z,3.00
2019-01-25T14:09:18.885Z,3.00
2019-01-25T14:11:53.203Z,2.80
2019-01-25T14:14:27.537Z,2.80
2019-01-25T14:17:01.813Z,2.80
2019-01-25T14:19:36.131Z,2.80
2019-01-25T14:22:10.449Z,2.80
2019-01-25T14:24:44.745Z,3.00
2019-01-25T14:27:19.081Z,3.00
2019-01-25T14:29:53.399Z,3.00
2019-01-25T14:32:27.697Z,3.00
2019-01-25T14:35:02.013Z,3.10
2019-01-25T14:37:36.331Z,3.00
2019-01-25T14:40:10.629Z,3.00
2019-01-25T14:42:44.951Z,3.00
2019-01-25T14:45:20.780Z,3.00
2019-01-25T14:47:55.095Z,3.00
2019-01-25T14:50:32.014Z,3.00
2019-01-25T14:53:06.701Z,3.00
2019-01-25T14:55:41.016Z,2.90
2019-01-25T14:58:15.310Z,2.70
2019-01-25T15:00:49.634Z,2.60
2019-01-25T15:03:23.929Z,2.60
2019-01-25T15:05:58.282Z,2.50
2019-01-25T15:08:32.543Z,2.50
2019-01-25T15:11:06.862Z,2.50
2019-01-25T15:13:41.253Z,2.60
2019-01-25T15:16:15.579Z,2.50
2019-01-25T15:18:49.898Z,2.40
2019-01-25T15:21:24.187Z,2.30
2019-01-25T15:23:58.511Z,2.10
2019-01-25T15:26:32.798Z,2.00
2019-01-25T15:29:07.132Z,1.80
2019-01-25T15:31:41.420Z,1.70
2019-01-25T15:34:15.735Z,1.50
2019-01-25T15:36:50.023Z,1.40
2019-01-25T15:39:24.346Z,1.20
2019-01-25T15:41:58.633Z,1.00
2019-01-25T15:44:32.961Z,0.80
2019-01-25T15:47:07.278Z,0.60
2019-01-25T15:49:41.584Z,0.50
2019-01-25T15:52:15.895Z,0.30
2019-01-25T15:54:50.220Z,0.20
2019-01-25T15:57:24.509Z,0.00
2019-01-25T15:59:58.820Z,-0.10
2019-01-25T16:02:33.145Z,-0.10
2019-01-25T16:05:10.079Z,-0.40
2019-01-25T16:07:44.406Z,-0.50
2019-01-25T16:10:21.217Z,-0.50
2019-01-25T16:12:55.623Z,-0.50
2019-01-25T16:15:30.602Z,-0.60
2019-01-25T16:18:04.886Z,-0.80
2019-01-25T16:20:39.208Z,-0.90
2019-01-25T16:23:13.511Z,-1.00
2019-01-25T16:25:47.851Z,-1.00
2019-01-25T16:28:22.136Z,-1.10
2019-01-25T16:30:56.469Z,-1.30
2019-01-25T16:33:30.788Z,-1.40
2019-01-25T16:36:05.093Z,-1.60
2019-01-25T16:38:39.419Z,-1.70
2019-01-25T16:41:13.744Z,-1.70
2019-01-25T16:43:48.066Z,-1.70
2019-01-25T16:46:22.387Z,-1.60
2019-01-25T16:48:56.719Z,-1.60
2019-01-25T16:51:31.020Z,-1.60
2019-01-25T16:54:05.611Z,-1.50
2019-01-25T16:56:39.932Z,-1.60
2019-01-25T16:59:14.232Z,-1.80
2019-01-25T17:01:48.567Z,-2.00
2019-01-25T17:04:22.911Z,-2.20
2019-01-25T17:06:57.272Z,-2.40
2019-01-25T17:09:31.563Z,-2.30
2019-01-25T17:12:05.887Z,-2.40
2019-01-25T17:14:40.216Z,-2.30
2019-01-25T17:17:14.540Z,-2.40
2019-01-25T17:19:48.915Z,-2.40
2019-01-25T17:22:23.238Z,-2.60
2019-01-25T17:24:57.570Z,-2.80
2019-01-25T17:27:31.908Z,-2.90
2019-01-25T17:30:19.752Z,-3.00
2019-01-25T17:32:56.202Z,-2.90
2019-01-25T17:35:31.412Z,-3.00
2019-01-25T17:38:05.801Z,-3.00
2019-01-25T17:40:46.669Z,-2.70
2019-01-25T17:43:18.984Z,-2.70
2019-01-25T17:45:53.282Z,-2.70
2019-01-25T17:48:27.611Z,-2.70
2019-01-25T17:51:01.911Z,-2.80
2019-01-25T17:53:36.238Z,-2.80
2019-01-25T17:56:10.546Z,-2.70
2019-01-25T17:58:44.886Z,-2.50
2019-01-25T18:01:19.192Z,-2.50
2019-01-25T18:03:53.536Z,-2.50
2019-01-25T18:06:27.838Z,-2.40
2019-01-25T18:09:02.169Z,-2.50
2019-01-25T18:11:36.467Z,-2.40
2019-01-25T18:14:10.801Z,-2.30
2019-01-25T18:16:45.125Z,-2.30
2019-01-25T18:19:19.451Z,-2.50
2019-01-25T18:21:53.791Z,-2.60
2019-01-25T18:24:28.085Z,-2.60
2019-01-25T18:27:02.412Z,-2.70
2019-01-25T18:29:36.883Z,-2.90
2019-01-25T18:32:11.183Z,-3.10
2019-01-25T18:34:45.507Z,-3.30
2019-01-25T18:37:19.803Z,-3.50
2019-01-25T18:39:54.124Z,-3.60
2019-01-25T18:42:28.427Z,-3.70
2019-01-25T18:45:02.746Z,-3.60
2019-01-25T18:47:37.045Z,-3.60
2019-01-25T18:50:15.542Z,-3.60
2019-01-25T18:52:49.835Z,-3.60
2019-01-25T18:55:26.072Z,-3.60
2019-01-25T18:58:00.406Z,-3.80
2019-01-25T19:00:34.705Z,-4.10
2019-01-25T19:03:09.022Z,-4.10
2019-01-25T19:05:43.341Z,-4.20
2019-01-25T19:08:17.665Z,-4.10
2019-01-25T19:10:51.973Z,-3.90
2019-01-25T19:13:26.292Z,-3.60
2019-01-25T19:16:00.589Z,-3.50
2019-01-25T19:18:34.910Z,-3.70
2019-01-25T19:21:09.238Z,-4.00
2019-01-25T19:23:43.582Z,-4.10
2019-01-25T19:26:19.501Z,-4.20
2019-01-25T19:28:53.988Z,-4.40
2019-01-25T19:31:28.327Z,-4.60
2019-01-25T19:34:02.623Z,-4.90
2019-01-25T19:36:36.955Z,-4.90
2019-01-25T19:39:11.352Z,-4.80
2019-01-25T19:41:45.663Z,-4.90
2019-01-25T19:44:19.993Z,-4.90
2019-01-25T19:46:54.290Z,-5.00
2019-01-25T19:49:28.617Z,-5.10
2019-01-25T19:52:02.921Z,-5.20
2019-01-25T19:54:37.245Z,-5.10
2019-01-25T19:57:11.546Z,-5.00
2019-01-25T19:59:45.878Z,-5.20
2019-01-25T20:02:20.174Z,-5.20
2019-01-25T20:04:54.513Z,-5.20
2019-01-25T20:07:28.811Z,-5.40
2019-01-25T20:10:04.082Z,-5.60
2019-01-25T20:12:38.389Z,-5.70
2019-01-25T20:15:20.263Z,-5.80
2019-01-25T20:17:54.587Z,-5.90
2019-01-25T20:20:35.497Z,-5.80
2019-01-25T20:23:09.838Z,-5.80
2019-01-25T20:25:44.139Z,-5.80
2019-01-25T20:28:18.468Z,-5.80
2019-01-25T20:30:52.761Z,-5.60
2019-01-25T20:33:27.089Z,-5.60
2019-01-25T20:36:01.457Z,-5.60
2019-01-25T20:38:35.798Z,-5.60
2019-01-25T20:41:10.099Z,-5.70
2019-01-25T20:43:44.427Z,-5.70
2019-01-25T20:46:18.727Z,-5.60
2019-01-25T20:48:53.043Z,-5.80
2019-01-25T20:51:27.338Z,-5.80
2019-01-25T20:54:01.669Z,-5.90
2019-01-25T20:56:35.961Z,-6.00
2019-01-25T20:59:10.284Z,-6.00
2019-01-25T21:01:44.584Z,-6.00
2019-01-25T21:04:18.921Z,-5.90
2019-01-25T21:06:53.219Z,-6.00
2019-01-25T21:09:27.558Z,-6.10
2019-01-25T21:12:01.858Z,-6.00
2019-01-25T21:14:36.181Z,-6.00
2019-01-25T21:17:10.506Z,-6.00
2019-01-25T21:19:44.809Z,-6.00
2019-01-25T21:22:19.136Z,-6.10
2019-01-25T21:24:53.462Z,-6.00
2019-01-25T21:27:27.784Z,-6.00
2019-01-25T21:30:02.106Z,-6.10
2019-01-25T21:32:36.437Z,-6.20
2019-01-25T21:35:11.017Z,-6.20
2019-01-25T21:37:45.317Z,-6.30
2019-01-25T21:40:28.567Z,-6.30
2019-01-25T21:43:02.867Z,-6.20
2019-01-25T21:45:42.872Z,-6.00
2019-01-25T21:48:13.260Z,-5.70
2019-01-25T21:50:47.723Z,-5.60
2019-01-25T21:53:22.058Z,-5.60
2019-01-25T21:55:56.401Z,-5.90
2019-01-25T21:58:30.696Z,-5.90
2019-01-25T22:01:05.261Z,-5.80
2019-01-25T22:03:39.591Z,-5.50
2019-01-25T22:06:13.908Z,-5.70
2019-01-25T22:08:48.221Z,-5.80
2019-01-25T22:11:22.524Z,-5.80
2019-01-25T22:13:56.848Z,-5.90
2019-01-25T22:16:31.150Z,-5.90
2019-01-25T22:19:05.484Z,-6.00
2019-01-25T22:21:39.807Z,-6.10
2019-01-25T22:24:14.136Z,-6.10
2019-01-25T22:26:48.458Z,-6.00
2019-01-25T22:29:23.150Z,-5.90
2019-01-25T22:31:57.443Z,-5.70
2019-01-25T22:34:31.767Z,-5.90
2019-01-25T22:37:06.064Z,-6.00
2019-01-25T22:39:40.386Z,-6.10
2019-01-25T22:42:14.702Z,-6.00
2019-01-25T22:44:49.028Z,-5.70
2019-01-25T22:47:23.324Z,-5.80
2019-01-25T22:49:57.649Z,-6.10
2019-01-25T22:52:31.949Z,-6.10
2019-01-25T22:55:13.493Z,-5.80
2019-01-25T22:57:47.822Z,-5.90
2019-01-25T23:00:50.596Z,-6.20
2019-01-25T23:03:41.515Z,-6.30
2019-01-25T23:06:20.733Z,-6.10
2019-01-25T23:08:56.848Z,-6.10
2019-01-25T23:11:31.177Z,-6.20
2019-01-25T23:14:07.032Z,-6.20
2019-01-25T23:16:41.428Z,-6.30
2019-01-25T23:19:15.728Z,-6.20
2019-01-25T23:21:50.395Z,-6.20
2019-01-25T23:24:24.798Z,-6.40
2019-01-25T23:27:00.882Z,-6.50
2019-01-25T23:29:35.192Z,-6.50
2019-01-25T23:32:09.525Z,-6.50
2019-01-25T23:34:43.866Z,-6.50
2019-01-25T23:37:18.173Z,-6.30
2019-01-25T23:39:52.474Z,-6.30
2019-01-25T23:42:26.796Z,-6.30
2019-01-25T23:45:01.097Z,-6.40
2019-01-25T23:47:35.420Z,-6.40
2019-01-25T23:50:10.186Z,-6.30
2019-01-25T23:52:44.506Z,-6.20
2019-01-25T23:55:18.918Z,-6.50
2019-01-25T23:57:53.338Z,-6.30
